Taylor Fork

This weather station provides wind speed, gust or max wind speed, and wind direction at 9460 ft. near Pika Point above Sunlight Basin.  

This data can be used with temperature and precipitation data from the Carrot Basin SNOTEL site. If the data below is not displayed or up to date, view data here.

This weather station was purchased by the Friends of the Avalanche Center.

Elevation
9460ft
Jump to table bottom
Date Time Temperature
deg F
RH, % Wind Speed Wind Gust Wind Direction
03/08/21 11:00 28.2 57 12 26 SE - 117
03/08/21 10:00 26.3 57 10 18 E - 112
03/08/21 09:00 25.9 54 15 24 E - 81
03/08/21 08:00 26.2 50 14 22 E - 91
03/08/21 07:00 25.0 55 10 15 E - 88
03/08/21 06:00 24.5 58 11 16 E - 90
03/08/21 05:00 23.4 64 13 20 E - 100
03/08/21 04:00 23.6 58 12 20 SE - 147
03/08/21 03:00 23.7 63 13 20 S - 198
03/08/21 02:00 24.7 58 15 22 S - 192
03/08/21 01:00 23.7 61 13 22 S - 187
03/08/21 00:00 21.6 70 14 22 S - 173
03/07/21 23:00 21.9 71 15 21 S - 175
03/07/21 22:00 20.4 73 15 22 S - 173
03/07/21 21:00 20.8 73 16 25 S - 173
03/07/21 20:00 20.7 73 21 32 SE - 152
03/07/21 19:00 21.1 68 21 33 SE - 157
03/07/21 18:00 21.4 64 19 31 S - 168
03/07/21 17:00 23.4 67 18 29 S - 177
03/07/21 16:00 24.3 70 21 36 S - 168
03/07/21 15:00 22.0 89 23 36 S - 166
03/07/21 14:00 21.8 92 19 27 S - 173
03/07/21 13:00 20.3 92 14 25 S - 197
03/07/21 12:00 19.8 93 16 28 S - 178
03/07/21 11:00 18.6 93 16 25 S - 170
03/07/21 10:00 16.8 92 16 23 S - 175
03/07/21 09:00 16.2 92 16 26 S - 180
03/07/21 08:00 15.6 92 18 29 S - 181
03/07/21 07:00 15.9 92 16 27 S - 178
03/07/21 06:00 16.9 92 17 25 S - 166
03/07/21 05:00 17.5 93 16 26 S - 167
03/07/21 04:00 17.8 93 10 17 S - 171
03/07/21 03:00 18.2 93 11 17 SE - 149
03/07/21 02:00 17.7 93 10 17 SE - 157
03/07/21 01:00 18.7 93 9 16 E - 110
03/07/21 00:00 18.8 93 10 16 SE - 131
03/06/21 23:00 18.1 92 14 22 S - 180
03/06/21 22:00 18.7 91 17 28 SW - 206
03/06/21 21:00 18.5 88 20 32 SW - 211
03/06/21 20:00 18.9 80 21 34 S - 202
03/06/21 19:00 23.1 58 20 38 SW - 212
03/06/21 18:00 25.3 64 22 47 SW - 216
03/06/21 17:00 26.5 62 22 42 SW - 216
03/06/21 16:00 26.5 63 21 39 SW - 211
03/06/21 15:00 27.1 61 26 49 SW - 204
03/06/21 14:00 28.5 59 31 53 SW - 216
03/06/21 13:00 30.7 49 19 41 S - 183
03/06/21 12:00 30.2 50 25 47 S - 168
03/06/21 11:00 29.3 53 21 41 SE - 154
03/06/21 10:00 28.5 49 16 25 SE - 139